createdAt,value
2022-12-24T00:01:23.608Z,10.30
2022-12-24T00:03:53.273Z,10.30
2022-12-24T00:06:24.276Z,10.30
2022-12-24T00:08:53.046Z,10.30
2022-12-24T00:11:21.593Z,10.20
2022-12-24T00:13:50.474Z,10.20
2022-12-24T00:16:18.701Z,10.20
2022-12-24T00:18:47.288Z,10.20
2022-12-24T00:21:17.311Z,10.20
2022-12-24T00:23:45.726Z,10.20
2022-12-24T00:26:14.808Z,10.20
2022-12-24T00:28:43.295Z,10.20
2022-12-24T00:31:13.551Z,10.20
2022-12-24T00:33:41.937Z,10.20
2022-12-24T00:36:10.985Z,10.20
2022-12-24T00:38:40.743Z,10.20
2022-12-24T00:41:24.795Z,10.20
2022-12-24T00:43:54.410Z,10.20
2022-12-24T00:46:23.322Z,10.20
2022-12-24T00:56:35.054Z,10.30
2022-12-24T00:59:03.338Z,10.30
2022-12-24T01:01:31.556Z,10.30
2022-12-24T01:04:13.553Z,10.30
2022-12-24T01:06:41.730Z,10.30
2022-12-24T01:09:10.098Z,10.30
2022-12-24T01:11:39.582Z,10.30
2022-12-24T01:14:07.703Z,10.30
2022-12-24T01:16:35.892Z,10.20
2022-12-24T01:19:04.044Z,10.20
2022-12-24T01:21:32.159Z,10.20
2022-12-24T01:24:00.268Z,10.20
2022-12-24T01:26:28.327Z,10.20
2022-12-24T01:28:57.805Z,10.20
2022-12-24T01:31:26.032Z,10.20
2022-12-24T01:33:54.182Z,10.20
2022-12-24T01:36:22.370Z,10.20
2022-12-24T01:38:50.530Z,10.10
2022-12-24T01:41:38.087Z,10.10
2022-12-24T01:44:21.601Z,10.10
2022-12-24T01:46:51.542Z,10.10
2022-12-24T01:49:20.256Z,10.00
2022-12-24T01:51:52.183Z,10.00
2022-12-24T01:54:23.698Z,9.90
2022-12-24T01:56:56.043Z,9.80
2022-12-24T01:59:25.835Z,9.80
2022-12-24T02:01:55.356Z,9.70
2022-12-24T02:04:32.064Z,9.70
2022-12-24T02:07:00.443Z,9.60
2022-12-24T02:09:29.444Z,9.50
2022-12-24T02:11:58.223Z,9.50
2022-12-24T02:14:29.079Z,9.40
2022-12-24T02:17:08.243Z,9.30
2022-12-24T02:20:14.782Z,9.40
2022-12-24T02:22:57.218Z,9.50
2022-12-24T02:25:50.881Z,9.40
2022-12-24T02:28:38.546Z,9.40
2022-12-24T02:31:11.296Z,9.30
2022-12-24T02:33:46.545Z,9.30
2022-12-24T02:36:22.101Z,9.20
2022-12-24T02:38:54.028Z,9.20
2022-12-24T02:41:25.784Z,9.10
2022-12-24T02:43:56.482Z,9.10
2022-12-24T02:46:29.290Z,9.10
2022-12-24T02:49:00.282Z,9.00
2022-12-24T02:51:28.411Z,9.00
2022-12-24T02:53:59.488Z,9.00
2022-12-24T02:56:40.827Z,8.90
2022-12-24T02:59:35.604Z,9.00
2022-12-24T03:07:40.964Z,9.10
2022-12-24T03:10:19.827Z,9.20
2022-12-24T03:12:51.970Z,9.30
2022-12-24T03:15:22.181Z,9.30
2022-12-24T03:17:53.509Z,9.30
2022-12-24T03:20:24.467Z,9.30
2022-12-24T03:22:54.166Z,9.30
2022-12-24T03:25:25.603Z,9.40
2022-12-24T03:27:54.577Z,9.40
2022-12-24T03:30:22.615Z,9.40
2022-12-24T03:32:50.730Z,9.40
2022-12-24T03:35:18.994Z,9.40
2022-12-24T03:37:47.058Z,9.30
2022-12-24T03:40:16.749Z,9.30
2022-12-24T03:42:44.814Z,9.30
2022-12-24T03:45:12.998Z,9.30
2022-12-24T03:47:41.092Z,9.20
2022-12-24T03:50:10.108Z,9.20
2022-12-24T03:52:38.317Z,9.20
2022-12-24T03:55:07.081Z,9.20
2022-12-24T03:57:36.473Z,9.20
2022-12-24T04:00:06.171Z,9.20
2022-12-24T04:02:34.442Z,9.30
2022-12-24T04:05:02.658Z,9.40
2022-12-24T04:07:30.747Z,9.40
2022-12-24T04:09:58.819Z,9.50
2022-12-24T04:12:27.252Z,9.50
2022-12-24T04:14:56.704Z,9.60
2022-12-24T04:17:24.842Z,9.60
2022-12-24T04:19:53.043Z,9.70
2022-12-24T04:22:21.139Z,9.70
2022-12-24T04:24:49.195Z,9.70
2022-12-24T04:27:17.669Z,9.70
2022-12-24T04:29:45.762Z,9.70
2022-12-24T04:32:15.776Z,9.80
2022-12-24T04:34:43.903Z,9.80
2022-12-24T04:37:11.920Z,9.80
2022-12-24T04:39:40.000Z,9.90
2022-12-24T04:42:08.061Z,9.90
2022-12-24T04:44:36.136Z,9.90
2022-12-24T04:47:04.249Z,10.00
2022-12-24T04:49:33.683Z,9.90
2022-12-24T04:52:01.834Z,10.00
2022-12-24T04:54:29.963Z,10.00
2022-12-24T04:56:58.089Z,10.00
2022-12-24T04:59:26.166Z,10.00
2022-12-24T05:01:54.348Z,10.10
2022-12-24T05:04:22.498Z,10.10
2022-12-24T05:06:51.995Z,10.20
2022-12-24T05:09:20.027Z,10.20
2022-12-24T05:11:48.082Z,10.30
2022-12-24T05:14:16.129Z,10.30
2022-12-24T05:16:45.085Z,10.30
2022-12-24T05:19:13.292Z,10.30
2022-12-24T05:21:41.534Z,10.30
2022-12-24T05:24:30.030Z,10.30
2022-12-24T05:26:59.774Z,10.40
2022-12-24T05:29:27.836Z,10.40
2022-12-24T05:31:55.919Z,10.40
2022-12-24T05:34:23.992Z,10.50
2022-12-24T05:36:52.089Z,10.50
2022-12-24T05:39:21.670Z,10.40
2022-12-24T05:41:49.793Z,10.40
2022-12-24T05:44:18.524Z,10.50
2022-12-24T05:46:46.867Z,10.50
2022-12-24T05:49:15.250Z,10.50
2022-12-24T05:51:43.358Z,10.50
2022-12-24T05:54:12.726Z,10.50
2022-12-24T05:56:42.372Z,10.40
2022-12-24T05:59:10.469Z,10.40
2022-12-24T06:01:38.638Z,10.40
2022-12-24T06:04:06.951Z,10.50
2022-12-24T06:06:35.143Z,10.40
2022-12-24T06:09:03.364Z,10.50
2022-12-24T06:11:32.569Z,10.50
2022-12-24T06:14:20.756Z,10.50
2022-12-24T06:16:49.002Z,10.40
2022-12-24T06:19:17.084Z,10.50
2022-12-24T06:21:45.167Z,10.40
2022-12-24T06:24:13.257Z,10.30
2022-12-24T06:26:41.431Z,10.30
2022-12-24T06:29:10.263Z,10.30
2022-12-24T06:31:39.820Z,10.30
2022-12-24T06:34:07.960Z,10.30
2022-12-24T06:36:36.045Z,10.30
2022-12-24T06:39:04.199Z,10.30
2022-12-24T06:41:32.316Z,10.30
2022-12-24T06:44:00.400Z,10.30
2022-12-24T06:46:28.513Z,10.40
2022-12-24T06:48:58.091Z,10.30
2022-12-24T06:51:26.216Z,10.30
2022-12-24T06:53:55.029Z,10.30
2022-12-24T06:56:23.301Z,10.30
2022-12-24T06:58:51.438Z,10.30
2022-12-24T07:01:20.977Z,10.20
2022-12-24T07:03:49.749Z,10.20
2022-12-24T07:06:21.373Z,10.20
2022-12-24T07:08:49.607Z,10.20
2022-12-24T07:11:18.006Z,10.20
2022-12-24T07:13:47.011Z,10.20
2022-12-24T07:16:15.192Z,10.10
2022-12-24T07:18:43.333Z,10.10
2022-12-24T07:21:11.474Z,10.10
2022-12-24T07:23:40.939Z,10.10
2022-12-24T07:26:09.202Z,10.10
2022-12-24T07:28:37.417Z,10.10
2022-12-24T07:31:05.659Z,10.00
2022-12-24T07:33:33.803Z,10.10
2022-12-24T07:36:03.517Z,10.00
2022-12-24T07:38:32.476Z,10.00
2022-12-24T07:41:02.377Z,10.00
2022-12-24T07:43:30.519Z,10.00
2022-12-24T07:45:59.024Z,10.00
2022-12-24T07:48:28.709Z,10.10
2022-12-24T07:50:57.406Z,10.00
2022-12-24T07:53:26.175Z,10.10
2022-12-24T07:55:54.945Z,10.10
2022-12-24T07:58:25.125Z,10.10
2022-12-24T08:00:58.127Z,10.10
2022-12-24T08:03:26.698Z,10.10
2022-12-24T08:05:54.917Z,10.10
2022-12-24T08:08:23.103Z,10.10
2022-12-24T08:10:51.492Z,10.10
2022-12-24T08:13:20.045Z,10.10
2022-12-24T08:15:49.584Z,10.00
2022-12-24T08:18:17.696Z,10.00
2022-12-24T08:20:45.805Z,9.90
2022-12-24T08:23:14.301Z,10.00
2022-12-24T08:25:44.644Z,9.90
2022-12-24T08:28:12.960Z,9.90
2022-12-24T08:30:41.639Z,10.00
2022-12-24T08:33:11.465Z,10.00
2022-12-24T08:35:39.664Z,10.00
2022-12-24T08:38:07.803Z,10.10
2022-12-24T08:40:35.865Z,10.20
2022-12-24T08:43:04.091Z,10.20
2022-12-24T08:45:38.172Z,10.30
2022-12-24T08:48:10.873Z,10.30
2022-12-24T08:50:41.419Z,10.40
2022-12-24T08:53:09.635Z,10.40
2022-12-24T08:55:37.873Z,10.40
2022-12-24T08:58:06.191Z,10.40
2022-12-24T09:00:34.454Z,10.50
2022-12-24T09:03:02.815Z,10.60
2022-12-24T09:05:32.428Z,10.60
2022-12-24T09:08:00.446Z,10.60
2022-12-24T09:10:28.584Z,10.60
2022-12-24T09:12:56.952Z,10.70
2022-12-24T09:15:25.001Z,10.70
2022-12-24T09:17:53.092Z,10.70
2022-12-24T09:20:21.114Z,10.80
2022-12-24T09:22:50.522Z,10.90
2022-12-24T09:25:18.775Z,10.90
2022-12-24T09:27:46.835Z,10.90
2022-12-24T09:30:16.215Z,11.00
2022-12-24T09:32:44.327Z,11.00
2022-12-24T09:35:12.447Z,10.90
2022-12-24T09:37:40.564Z,10.80
2022-12-24T09:40:23.728Z,10.80
2022-12-24T09:42:54.630Z,11.00
2022-12-24T09:45:30.092Z,11.00
2022-12-24T09:48:02.375Z,10.90
2022-12-24T09:50:38.972Z,10.80
2022-12-24T09:53:17.132Z,10.80
2022-12-24T09:55:49.763Z,10.80
2022-12-24T09:58:23.508Z,10.90
2022-12-24T10:00:52.570Z,11.10
2022-12-24T10:03:20.781Z,11.30
2022-12-24T10:06:00.204Z,11.50
2022-12-24T10:08:34.351Z,11.70
2022-12-24T10:11:12.914Z,11.70
2022-12-24T10:13:56.981Z,11.70
2022-12-24T10:16:33.010Z,11.80
2022-12-24T10:19:07.148Z,11.80
2022-12-24T10:21:43.609Z,11.70
2022-12-24T10:24:19.883Z,11.60
2022-12-24T10:26:54.077Z,11.60
2022-12-24T10:29:28.917Z,11.50
2022-12-24T10:32:03.942Z,11.40
2022-12-24T10:34:37.218Z,11.30
2022-12-24T10:37:05.455Z,11.30
2022-12-24T10:39:33.628Z,11.20
2022-12-24T10:42:04.114Z,11.20
2022-12-24T10:44:34.527Z,11.20
2022-12-24T10:47:02.721Z,11.20
2022-12-24T10:49:37.477Z,11.20
2022-12-24T10:52:08.535Z,11.20
2022-12-24T10:54:39.993Z,11.20
2022-12-24T10:57:27.046Z,11.20
2022-12-24T10:59:57.008Z,11.00
2022-12-24T11:02:29.338Z,10.90
2022-12-24T11:04:59.514Z,10.80
2022-12-24T11:07:28.549Z,10.70
2022-12-24T11:09:58.724Z,10.60
2022-12-24T11:12:31.782Z,10.50
2022-12-24T11:15:05.611Z,10.50
2022-12-24T11:17:36.285Z,10.50
2022-12-24T11:20:04.908Z,10.50
2022-12-24T11:22:35.196Z,10.50
2022-12-24T11:25:07.518Z,10.60
2022-12-24T11:27:44.287Z,10.60
2022-12-24T11:30:25.578Z,10.70
2022-12-24T11:33:20.708Z,10.70
2022-12-24T11:35:53.208Z,10.80
2022-12-24T11:38:24.018Z,10.80
2022-12-24T11:41:00.287Z,10.90
2022-12-24T11:43:44.621Z,10.90
2022-12-24T11:46:22.244Z,10.90
2022-12-24T11:49:18.466Z,10.90
2022-12-24T11:52:23.191Z,11.00
2022-12-24T11:55:16.300Z,11.00
2022-12-24T11:57:53.808Z,11.10
2022-12-24T12:00:22.060Z,11.10
2022-12-24T12:02:53.257Z,11.20
2022-12-24T12:05:26.475Z,11.20
2022-12-24T12:07:59.297Z,11.20
2022-12-24T12:10:31.537Z,11.10
2022-12-24T12:13:02.166Z,11.20
2022-12-24T12:15:35.244Z,11.20
2022-12-24T12:18:10.079Z,11.10
2022-12-24T12:20:43.548Z,11.10
2022-12-24T12:23:16.882Z,11.00
2022-12-24T12:25:49.008Z,10.90
2022-12-24T12:28:22.962Z,10.90
2022-12-24T12:31:02.644Z,10.90
2022-12-24T12:33:38.908Z,10.90
2022-12-24T12:36:12.026Z,11.00
2022-12-24T12:38:41.396Z,11.10
2022-12-24T12:41:23.530Z,11.10
2022-12-24T12:44:17.781Z,11.10
2022-12-24T12:47:02.345Z,11.20
2022-12-24T12:49:40.829Z,11.30
2022-12-24T12:52:20.597Z,11.40
2022-12-24T12:55:03.534Z,11.60
2022-12-24T12:57:37.079Z,11.70
2022-12-24T13:00:08.599Z,11.70
2022-12-24T13:02:57.756Z,11.70
2022-12-24T13:06:00.926Z,11.60
2022-12-24T13:08:49.480Z,11.50
2022-12-24T13:11:30.072Z,11.40
2022-12-24T13:14:23.914Z,11.40
2022-12-24T13:17:34.445Z,11.50
2022-12-24T13:20:23.018Z,11.50
2022-12-24T13:22:55.911Z,11.40
2022-12-24T13:25:37.297Z,11.50
2022-12-24T13:28:33.668Z,11.40
2022-12-24T13:31:29.776Z,11.30
2022-12-24T13:34:02.650Z,11.20
2022-12-24T13:37:02.482Z,11.10
2022-12-24T13:39:30.708Z,11.00
2022-12-24T13:42:00.167Z,10.90
2022-12-24T13:44:33.676Z,10.80
2022-12-24T13:47:25.278Z,10.70
2022-12-24T13:50:15.471Z,10.60
2022-12-24T13:52:52.517Z,10.50
2022-12-24T13:55:20.825Z,10.40
2022-12-24T13:57:58.595Z,10.40
2022-12-24T14:00:31.123Z,10.40
2022-12-24T14:03:02.685Z,10.40
2022-12-24T14:05:35.495Z,10.40
2022-12-24T14:08:05.845Z,10.30
2022-12-24T14:10:40.818Z,10.20
2022-12-24T14:13:51.522Z,10.20
2022-12-24T14:16:22.434Z,10.20
2022-12-24T14:18:59.432Z,10.20
2022-12-24T14:21:30.751Z,10.10
2022-12-24T14:24:01.900Z,10.10
2022-12-24T14:26:33.175Z,10.20
2022-12-24T14:29:06.805Z,10.20
2022-12-24T14:31:36.333Z,10.20
2022-12-24T14:34:08.865Z,10.20
2022-12-24T14:36:37.463Z,10.10
2022-12-24T14:39:08.165Z,10.10
2022-12-24T14:41:47.001Z,10.00
2022-12-24T14:44:24.711Z,9.80
2022-12-24T14:46:58.852Z,9.70
2022-12-24T14:49:42.085Z,9.70
2022-12-24T14:52:46.011Z,9.60
2022-12-24T14:55:32.902Z,9.50
2022-12-24T14:58:20.915Z,9.30
2022-12-24T15:00:52.212Z,9.20
2022-12-24T15:03:24.031Z,9.10
2022-12-24T15:05:54.875Z,9.00
2022-12-24T15:08:30.089Z,8.90
2022-12-24T15:11:02.546Z,8.80
2022-12-24T15:13:36.950Z,8.80
2022-12-24T15:16:09.022Z,8.70
2022-12-24T15:18:42.975Z,8.60
2022-12-24T15:21:19.132Z,8.60
2022-12-24T15:23:51.604Z,8.50
2022-12-24T15:26:25.189Z,8.50
2022-12-24T15:29:01.802Z,8.40
2022-12-24T15:31:31.873Z,8.40
2022-12-24T15:34:01.953Z,8.30
2022-12-24T15:36:33.273Z,8.30
2022-12-24T15:39:03.922Z,8.20
2022-12-24T15:41:59.021Z,8.20
2022-12-24T15:44:27.804Z,8.10
2022-12-24T15:47:00.048Z,8.10
2022-12-24T15:49:32.189Z,8.00
2022-12-24T15:52:06.648Z,7.90
2022-12-24T15:54:35.504Z,7.80
2022-12-24T15:57:15.148Z,7.80
2022-12-24T15:59:43.403Z,7.70
2022-12-24T16:02:36.549Z,7.70
2022-12-24T16:05:28.565Z,7.60
2022-12-24T16:08:24.317Z,7.70
2022-12-24T16:11:07.266Z,7.70
2022-12-24T16:13:37.736Z,7.60
2022-12-24T16:16:08.624Z,7.60
2022-12-24T16:18:39.445Z,7.70
2022-12-24T16:21:09.407Z,7.70
2022-12-24T16:23:45.834Z,7.70
2022-12-24T16:26:13.999Z,7.80
2022-12-24T16:28:42.046Z,7.90
2022-12-24T16:31:18.820Z,7.90
2022-12-24T16:33:47.326Z,8.00
2022-12-24T16:36:16.835Z,7.90
2022-12-24T16:39:02.230Z,8.00
2022-12-24T16:41:30.255Z,7.90
2022-12-24T16:43:57.393Z,8.00
2022-12-24T16:46:25.519Z,8.00
2022-12-24T16:48:53.648Z,8.00
2022-12-24T16:51:23.065Z,7.90
2022-12-24T16:53:51.515Z,7.90
2022-12-24T16:56:20.329Z,7.90
2022-12-24T16:58:48.417Z,7.80
2022-12-24T17:01:16.639Z,7.80
2022-12-24T17:03:44.783Z,7.70
2022-12-24T17:06:12.920Z,7.70
2022-12-24T17:08:42.353Z,7.70
2022-12-24T17:11:10.473Z,7.70
2022-12-24T17:13:38.523Z,7.70
2022-12-24T17:16:07.622Z,7.70
2022-12-24T17:18:35.688Z,7.60
2022-12-24T17:21:04.709Z,7.60
2022-12-24T17:23:32.845Z,7.60
2022-12-24T17:26:05.193Z,7.60
2022-12-24T17:28:37.301Z,7.80
2022-12-24T17:31:08.617Z,7.80
2022-12-24T17:33:36.762Z,7.80
2022-12-24T17:36:05.274Z,7.80
2022-12-24T17:38:33.361Z,7.80
2022-12-24T17:41:03.729Z,7.80
2022-12-24T17:43:31.825Z,7.80
2022-12-24T17:45:59.986Z,7.80
2022-12-24T17:48:28.051Z,7.80
2022-12-24T17:50:56.177Z,7.80
2022-12-24T17:53:24.371Z,7.70
2022-12-24T17:55:52.484Z,7.70
2022-12-24T17:58:21.997Z,7.70
2022-12-24T18:00:51.190Z,7.60
2022-12-24T18:03:19.743Z,7.70
2022-12-24T18:05:48.019Z,7.70
2022-12-24T18:08:16.909Z,7.70
2022-12-24T18:10:45.038Z,7.60
2022-12-24T18:13:19.056Z,7.50
2022-12-24T18:15:49.036Z,7.60
2022-12-24T18:18:17.163Z,7.60
2022-12-24T18:20:47.053Z,7.60
2022-12-24T18:30:58.845Z,7.60
2022-12-24T18:33:27.033Z,7.50
2022-12-24T18:35:55.210Z,7.50
2022-12-24T18:38:23.427Z,7.50
2022-12-24T18:40:51.555Z,7.50
2022-12-24T18:43:19.702Z,7.50
2022-12-24T18:45:49.864Z,7.40
2022-12-24T18:48:17.968Z,7.50
2022-12-24T18:50:55.732Z,7.50
2022-12-24T18:53:23.796Z,7.40
2022-12-24T18:55:52.112Z,7.50
2022-12-24T18:58:20.170Z,7.50
2022-12-24T19:00:49.697Z,7.50
2022-12-24T19:03:18.178Z,7.40
2022-12-24T19:05:46.289Z,7.40
2022-12-24T19:08:47.240Z,7.40
2022-12-24T19:11:02.582Z,7.40
2022-12-24T19:13:30.803Z,7.40
2022-12-24T19:16:00.553Z,7.30
2022-12-24T19:18:28.747Z,7.30
2022-12-24T19:20:57.147Z,7.30
2022-12-24T19:23:25.239Z,7.40
2022-12-24T19:25:53.337Z,7.40
2022-12-24T19:28:25.703Z,7.40
2022-12-24T19:30:54.186Z,7.50
2022-12-24T19:33:23.809Z,7.50
2022-12-24T19:35:51.889Z,7.50
2022-12-24T19:38:20.025Z,7.60
2022-12-24T19:40:48.128Z,7.50
2022-12-24T19:43:16.252Z,7.50
2022-12-24T19:45:44.629Z,7.50
2022-12-24T19:48:12.732Z,7.50
2022-12-24T19:50:42.182Z,7.40
2022-12-24T19:53:10.315Z,7.50
2022-12-24T19:55:38.397Z,7.50
2022-12-24T19:58:06.480Z,7.40
2022-12-24T20:00:34.661Z,7.50
2022-12-24T20:03:03.022Z,7.40
2022-12-24T20:05:31.293Z,7.40
2022-12-24T20:08:00.831Z,7.40
2022-12-24T20:10:28.961Z,7.40
2022-12-24T20:13:02.264Z,7.40
2022-12-24T20:15:33.769Z,7.40
2022-12-24T20:18:01.835Z,7.40
2022-12-24T20:20:30.444Z,7.40
2022-12-24T20:23:00.458Z,7.50
2022-12-24T20:25:28.694Z,7.60
2022-12-24T20:27:56.993Z,7.60
2022-12-24T20:30:25.090Z,7.60
2022-12-24T20:32:54.413Z,7.60
2022-12-24T20:35:22.783Z,7.70
2022-12-24T20:37:51.112Z,7.70
2022-12-24T20:40:20.865Z,7.80
2022-12-24T20:42:48.925Z,7.90
2022-12-24T20:45:17.059Z,7.90
2022-12-24T20:47:45.178Z,7.90
2022-12-24T20:50:13.313Z,8.00
2022-12-24T20:52:41.477Z,8.10
2022-12-24T20:55:09.923Z,8.10
2022-12-24T20:57:39.331Z,8.10
2022-12-24T21:00:08.747Z,8.10
2022-12-24T21:02:36.952Z,8.10
2022-12-24T21:05:08.066Z,8.10
2022-12-24T21:07:38.882Z,8.10
2022-12-24T21:10:08.092Z,8.10
2022-12-24T21:12:56.888Z,8.10
2022-12-24T21:15:27.775Z,8.00
2022-12-24T21:17:56.948Z,7.90
2022-12-24T21:31:58.980Z,7.90
2022-12-24T21:34:27.111Z,7.80
2022-12-24T21:36:55.196Z,7.80
2022-12-24T21:39:23.404Z,7.80
2022-12-24T21:41:51.492Z,7.80
2022-12-24T21:44:19.625Z,7.80
2022-12-24T21:46:47.692Z,7.80
2022-12-24T21:49:34.768Z,7.80
2022-12-24T21:52:02.843Z,7.70
2022-12-24T21:54:31.596Z,7.80
2022-12-24T21:57:30.006Z,7.80
2022-12-24T22:00:19.877Z,7.80
2022-12-24T22:02:48.788Z,7.80
2022-12-24T22:05:18.770Z,7.70
2022-12-24T22:08:04.186Z,7.70
2022-12-24T22:10:49.974Z,7.70
2022-12-24T22:13:18.423Z,7.60
2022-12-24T22:15:48.821Z,7.50
2022-12-24T22:18:18.617Z,7.50
2022-12-24T22:20:49.106Z,7.50
2022-12-24T22:23:17.559Z,7.50
2022-12-24T22:25:46.039Z,7.40
2022-12-24T22:28:14.146Z,7.40
2022-12-24T22:30:44.155Z,7.30
2022-12-24T22:33:12.764Z,7.40
2022-12-24T22:35:41.515Z,7.40
2022-12-24T22:38:11.914Z,7.40
2022-12-24T22:40:40.970Z,7.30
2022-12-24T22:43:09.051Z,7.30
2022-12-24T22:45:37.201Z,7.20
2022-12-24T22:48:05.667Z,7.20
2022-12-24T22:50:33.734Z,7.30
2022-12-24T22:53:01.816Z,7.30
2022-12-24T22:55:31.275Z,7.40
2022-12-24T22:57:59.338Z,7.30
2022-12-24T23:00:42.143Z,7.30
2022-12-24T23:03:11.310Z,7.30
2022-12-24T23:05:39.658Z,7.40
2022-12-24T23:08:08.716Z,7.30
2022-12-24T23:10:38.702Z,7.30
2022-12-24T23:13:25.061Z,7.20
2022-12-24T23:15:53.250Z,7.30
2022-12-24T23:18:21.317Z,7.30
2022-12-24T23:20:49.490Z,7.30
2022-12-24T23:23:17.706Z,7.30
2022-12-24T23:25:47.464Z,7.40
2022-12-24T23:28:15.608Z,7.40
2022-12-24T23:30:43.816Z,7.40
2022-12-24T23:33:12.037Z,7.50
2022-12-24T23:35:40.081Z,7.50
2022-12-24T23:38:08.226Z,7.60
2022-12-24T23:40:36.268Z,7.60
2022-12-24T23:43:05.713Z,7.60
2022-12-24T23:45:33.763Z,7.60
2022-12-24T23:48:01.805Z,7.60
2022-12-24T23:50:30.125Z,7.60
2022-12-24T23:52:58.192Z,7.70
2022-12-24T23:55:26.245Z,7.70
2022-12-24T23:57:54.365Z,7.70
